< < Back
Terminal Aerodrome Forecast


Current Version              Previous Versions:   1  2  3  4  5  6  7  8  9  

Terminal Aerodrome Forecast

861
FTUS42 KFFC 231700
TAFPDK
TAF
KPDK 231733Z 2318/2418 26005KT P6SM VCSH SCT030 BKN060
     FM232000 25006KT P6SM VCSH BKN040
     FM240000 28004KT P6SM SCT040
     FM240800 24004KT P6SM SCT025
     FM241100 24005KT 6SM BR BKN025
     FM241300 25006KT 6SM BR BKN025
     FM241500 26008G15KT 6SM -SHRA BKN030 PROB30 2416/2418 5SM TSRA
      BR BKN025CB=

Latest METAR

330
SAUS70 KWBC 231958
MTRPDK
METAR KPDK 231953Z 00000KT 10SM SCT100 30/19 A3004 RMK AO2 SLP152
T03000194


USA.gov is the U.S. government's official web portal to all federal, state and local government web resources and services.